TimeCDT,TemperatureF,Dew PointF,Humidity,Sea Level PressureIn,VisibilityMPH,Wind Direction,Wind SpeedMPH,Gust SpeedMPH,PrecipitationIn,Events,Conditions,WindDirDegrees,DateUTC
12:53 AM,68.0,57.9,70,29.92,10.0,SE,6.9,-,N/A,,Clear,140,2013-09-27 05:53:00
1:53 AM,66.9,57.9,73,29.92,10.0,SSE,10.4,-,N/A,,Clear,150,2013-09-27 06:53:00
2:53 AM,66.9,57.9,73,29.91,10.0,SSE,11.5,-,N/A,,Clear,150,2013-09-27 07:53:00
3:53 AM,66.9,57.9,73,29.91,10.0,SSE,11.5,-,N/A,,Clear,160,2013-09-27 08:53:00
4:53 AM,66.0,57.9,75,29.91,10.0,SE,8.1,-,N/A,,Clear,140,2013-09-27 09:53:00
5:53 AM,66.0,57.9,75,29.91,10.0,SSE,11.5,-,N/A,,Clear,150,2013-09-27 10:53:00
6:53 AM,64.9,57.0,75,29.91,10.0,SSE,15.0,-,N/A,,Clear,150,2013-09-27 11:53:00
7:53 AM,66.0,57.0,73,29.91,10.0,SE,15.0,-,N/A,,Clear,140,2013-09-27 12:53:00
8:53 AM,66.9,57.9,73,29.92,10.0,SE,13.8,-,N/A,,Scattered Clouds,140,2013-09-27 13:53:00
9:53 AM,70.0,59.0,68,29.92,10.0,SE,8.1,-,N/A,,Mostly Cloudy,140,2013-09-27 14:53:00
10:53 AM,72.0,61.0,68,29.90,10.0,SE,16.1,-,N/A,,Clear,140,2013-09-27 15:53:00
11:53 AM,75.0,62.1,64,29.89,10.0,SE,11.5,-,N/A,,Partly Cloudy,140,2013-09-27 16:53:00
12:53 PM,75.9,62.1,62,29.86,10.0,SE,13.8,-,N/A,,Partly Cloudy,140,2013-09-27 17:53:00
1:53 PM,77.0,63.0,62,29.83,10.0,SE,15.0,-,0.00,,Scattered Clouds,140,2013-09-27 18:53:00
2:53 PM,82.9,61.0,47,29.80,10.0,SSE,19.6,27.6,N/A,,Clear,150,2013-09-27 19:53:00
3:53 PM,84.0,60.1,44,29.81,10.0,SSE,19.6,25.3,N/A,,Clear,150,2013-09-27 20:53:00
4:53 PM,81.0,60.1,49,29.81,10.0,SSE,15.0,-,N/A,,Clear,150,2013-09-27 21:53:00
5:53 PM,81.0,61.0,50,29.83,10.0,SSE,15.0,-,N/A,,Clear,150,2013-09-27 22:53:00
6:53 PM,79.0,61.0,54,29.83,10.0,SSE,15.0,21.9,N/A,,Clear,150,2013-09-27 23:53:00
7:53 PM,78.1,61.0,56,29.83,10.0,SSE,15.0,-,N/A,,Clear,150,2013-09-28 00:53:00
8:53 PM,75.9,60.1,58,29.83,10.0,SSE,12.7,-,N/A,,Clear,150,2013-09-28 01:53:00
9:53 PM,73.9,60.1,62,29.84,10.0,SSE,12.7,-,N/A,,Clear,150,2013-09-28 02:53:00
10:53 PM,73.9,59.0,59,29.84,10.0,SSE,13.8,-,N/A,,Clear,150,2013-09-28 03:53:00
11:53 PM,72.0,57.9,61,29.83,10.0,SSE,12.7,-,N/A,,Clear,150,2013-09-28 04:53:00